createdAt,value
2019-02-16T00:04:40.700Z,100782.24
2019-02-16T00:09:59.254Z,100785.34
2019-02-16T00:15:17.752Z,100784.20
2019-02-16T00:20:36.666Z,100787.68
2019-02-16T00:25:55.145Z,100782.70
2019-02-16T00:31:13.756Z,100784.19
2019-02-16T00:36:33.862Z,100778.88
2019-02-16T00:41:52.487Z,100772.74
2019-02-16T00:47:13.411Z,100768.48
2019-02-16T00:52:31.984Z,100764.50
2019-02-16T00:57:50.556Z,100760.52
2019-02-16T01:03:09.176Z,100754.27
2019-02-16T01:08:27.663Z,100757.53
2019-02-16T01:13:46.453Z,100750.38
2019-02-16T01:19:05.069Z,100751.69
2019-02-16T01:24:23.617Z,100741.47
2019-02-16T01:29:42.224Z,100737.27
2019-02-16T01:35:01.151Z,100739.69
2019-02-16T01:40:19.810Z,100734.22
2019-02-16T01:45:38.358Z,100733.34
2019-02-16T01:50:56.862Z,100728.90
2019-02-16T01:56:15.759Z,100725.11
2019-02-16T02:01:34.379Z,100724.38
2019-02-16T02:06:53.000Z,100720.17
2019-02-16T02:12:11.942Z,100719.14
2019-02-16T02:17:30.562Z,100715.13
2019-02-16T02:22:52.134Z,100711.16
2019-02-16T02:28:10.923Z,100706.19
2019-02-16T02:33:29.487Z,100705.66
2019-02-16T02:38:48.117Z,100689.35
2019-02-16T02:44:06.788Z,100694.02
2019-02-16T02:49:25.294Z,100700.39
2019-02-16T02:54:43.833Z,100707.41
2019-02-16T03:00:02.499Z,100693.81
2019-02-16T03:05:24.162Z,100695.24
2019-02-16T03:10:45.649Z,100698.67
2019-02-16T03:16:04.276Z,100692.97
2019-02-16T03:21:22.874Z,100699.19
2019-02-16T03:26:56.291Z,100694.47
2019-02-16T03:32:20.855Z,100689.12
2019-02-16T03:37:57.033Z,100679.02
2019-02-16T03:43:15.632Z,100680.02
2019-02-16T03:48:34.508Z,100672.34
2019-02-16T03:53:53.066Z,100675.03
2019-02-16T03:59:11.892Z,100675.75
2019-02-16T04:04:30.516Z,100672.58
2019-02-16T04:09:49.007Z,100673.78
2019-02-16T04:15:08.598Z,100661.44
2019-02-16T04:20:27.240Z,100662.17
2019-02-16T04:25:45.729Z,100658.14
2019-02-16T04:31:04.362Z,100659.10
2019-02-16T04:36:23.202Z,100648.09
2019-02-16T04:41:41.646Z,100642.17
2019-02-16T04:47:00.133Z,100639.32
2019-02-16T04:52:18.685Z,100644.97
2019-02-16T04:57:37.178Z,100645.37
2019-02-16T05:02:55.799Z,100638.40
2019-02-16T05:08:14.366Z,100638.49
2019-02-16T05:13:32.941Z,100632.50
2019-02-16T05:18:51.426Z,100625.45
2019-02-16T05:24:10.446Z,100638.99
2019-02-16T05:29:28.933Z,100636.66
2019-02-16T05:34:47.482Z,100626.50
2019-02-16T05:40:08.275Z,100615.75
2019-02-16T05:45:26.887Z,100618.08
2019-02-16T05:50:45.537Z,100619.09
2019-02-16T05:56:04.187Z,100623.96
2019-02-16T06:01:24.432Z,100637.23
2019-02-16T06:06:43.101Z,100634.92
2019-02-16T06:12:01.763Z,100629.16
2019-02-16T06:17:20.387Z,100624.27
2019-02-16T06:22:38.941Z,100623.23
2019-02-16T06:27:57.494Z,100631.61
2019-02-16T06:33:16.061Z,100638.59
2019-02-16T06:38:34.667Z,100638.59
2019-02-16T06:43:53.280Z,100643.09
2019-02-16T06:49:11.835Z,100645.45
2019-02-16T06:54:31.188Z,100657.70
2019-02-16T06:59:51.722Z,100654.52
2019-02-16T07:05:10.360Z,100654.03
2019-02-16T07:10:28.912Z,100663.86
2019-02-16T07:15:49.151Z,100664.52
2019-02-16T07:21:07.703Z,100665.38
2019-02-16T07:26:26.358Z,100668.52
2019-02-16T07:31:46.366Z,100671.58
2019-02-16T07:37:04.986Z,100670.56
2019-02-16T07:42:23.541Z,100671.08
2019-02-16T07:47:46.912Z,100673.47
2019-02-16T07:53:07.175Z,100694.05
2019-02-16T07:58:29.022Z,100693.78
2019-02-16T08:04:04.949Z,100708.17
2019-02-16T08:09:34.153Z,100716.17
2019-02-16T08:15:03.321Z,100713.78
2019-02-16T08:20:26.428Z,100718.84
2019-02-16T08:25:46.617Z,100721.36
2019-02-16T08:31:09.949Z,100719.16
2019-02-16T08:36:37.708Z,100719.72
2019-02-16T08:42:00.177Z,100720.91
2019-02-16T08:47:20.347Z,100721.18
2019-02-16T08:52:56.238Z,100712.38
2019-02-16T08:58:21.634Z,100713.20
2019-02-16T09:03:59.281Z,100709.81
2019-02-16T09:09:19.466Z,100709.44
2019-02-16T09:14:42.438Z,100699.60
2019-02-16T09:20:11.568Z,100695.77
2019-02-16T09:25:47.519Z,100689.13
2019-02-16T09:31:23.826Z,100691.77
2019-02-16T09:36:54.818Z,100697.13
2019-02-16T09:42:14.795Z,100687.18
2019-02-16T09:47:43.881Z,100684.47
2019-02-16T09:53:04.150Z,100693.32
2019-02-16T09:58:29.782Z,100693.03
2019-02-16T10:03:52.651Z,100712.84
2019-02-16T10:09:15.619Z,100706.78
2019-02-16T10:14:35.821Z,100718.70
2019-02-16T10:20:01.926Z,100716.32
2019-02-16T10:25:34.203Z,100715.83
2019-02-16T10:30:57.160Z,100733.81
2019-02-16T10:36:33.248Z,100733.39
2019-02-16T10:41:53.360Z,100713.97
2019-02-16T10:47:19.500Z,100727.12
2019-02-16T10:52:57.617Z,100736.41
2019-02-16T10:58:20.499Z,100751.08
2019-02-16T11:03:43.220Z,100739.42
2019-02-16T11:09:12.280Z,100738.41
2019-02-16T11:14:32.544Z,100736.84
2019-02-16T11:20:01.568Z,100732.55
2019-02-16T11:25:36.570Z,100738.82
2019-02-16T11:31:08.976Z,100730.08
2019-02-16T11:36:32.103Z,100728.56
2019-02-16T11:41:56.969Z,100720.25
2019-02-16T11:47:23.295Z,100720.88
2019-02-16T11:52:59.397Z,100716.46
2019-02-16T11:58:19.728Z,100720.93
2019-02-16T12:03:55.117Z,100708.61
2019-02-16T12:09:31.578Z,100700.33
2019-02-16T12:14:57.384Z,100693.72
2019-02-16T12:20:33.638Z,100681.48
2019-02-16T12:26:00.163Z,100681.73
2019-02-16T12:31:26.415Z,100675.13
2019-02-16T12:36:46.583Z,100677.10
2019-02-16T12:42:21.359Z,100683.42
2019-02-16T12:47:44.257Z,100679.64
2019-02-16T12:53:04.434Z,100679.84
2019-02-16T12:58:33.804Z,100666.02
2019-02-16T13:04:02.838Z,100667.86
2019-02-16T13:09:40.367Z,100667.78
2019-02-16T13:15:03.090Z,100657.73
2019-02-16T13:20:25.800Z,100660.08
2019-02-16T13:25:46.029Z,100653.81
2019-02-16T13:31:09.224Z,100657.20
2019-02-16T13:36:35.332Z,100645.23
2019-02-16T13:42:01.451Z,100656.08
2019-02-16T13:47:24.734Z,100648.18
2019-02-16T13:52:44.891Z,100641.53
2019-02-16T13:58:05.512Z,100654.95
2019-02-16T14:03:43.566Z,100631.36
2019-02-16T14:09:12.969Z,100639.69
2019-02-16T14:14:43.504Z,100638.55
2019-02-16T14:20:01.977Z,100635.09
2019-02-16T14:25:22.162Z,100633.27
2019-02-16T14:30:40.968Z,100639.02
2019-02-16T14:35:59.584Z,100634.13
2019-02-16T14:41:18.218Z,100638.28
2019-02-16T14:46:36.803Z,100636.95
2019-02-16T14:51:55.433Z,100633.47
2019-02-16T14:57:14.004Z,100630.58
2019-02-16T15:02:32.567Z,100632.80
2019-02-16T15:07:51.116Z,100636.41
2019-02-16T15:13:09.832Z,100630.56
2019-02-16T15:18:28.724Z,100625.02
2019-02-16T15:23:47.307Z,100625.16
2019-02-16T15:29:05.943Z,100618.58
2019-02-16T15:34:24.513Z,100626.00
2019-02-16T15:39:43.076Z,100616.53
2019-02-16T15:45:01.743Z,100620.94
2019-02-16T15:50:20.364Z,100614.20
2019-02-16T15:55:38.800Z,100621.68
2019-02-16T16:00:57.390Z,100612.03
2019-02-16T16:06:16.033Z,100611.19
2019-02-16T16:11:52.214Z,100609.91
2019-02-16T16:17:12.395Z,100605.94
2019-02-16T16:22:32.778Z,100600.20
2019-02-16T16:28:09.145Z,100598.84
2019-02-16T16:33:29.318Z,100594.78
2019-02-16T16:38:55.633Z,100601.72
2019-02-16T16:44:15.781Z,100604.39
2019-02-16T16:49:42.027Z,100594.19
2019-02-16T16:55:18.163Z,100594.80
2019-02-16T17:00:54.681Z,100588.97
2019-02-16T17:06:17.532Z,100591.53
2019-02-16T17:11:46.888Z,100592.94
2019-02-16T17:17:13.211Z,100593.02
2019-02-16T17:22:45.531Z,100598.42
2019-02-16T17:28:17.719Z,100608.19
2019-02-16T17:33:53.087Z,100607.73
2019-02-16T17:39:13.405Z,100603.56
2019-02-16T17:44:51.564Z,100598.73
2019-02-16T17:50:14.592Z,100596.31
2019-02-16T17:55:35.675Z,100596.47
2019-02-16T18:00:58.972Z,100595.02
2019-02-16T18:06:33.645Z,100599.77
2019-02-16T18:11:56.564Z,100599.13
2019-02-16T18:17:16.769Z,100600.69
2019-02-16T18:22:37.009Z,100609.43
2019-02-16T18:28:12.897Z,100605.60
2019-02-16T18:33:41.905Z,100607.04
2019-02-16T18:39:02.368Z,100603.77
2019-02-16T18:44:31.677Z,100603.90
2019-02-16T18:50:08.393Z,100600.66
2019-02-16T18:55:40.962Z,100595.59
2019-02-16T19:01:03.874Z,100591.22
2019-02-16T19:06:30.198Z,100606.33
2019-02-16T19:11:56.131Z,100610.37
2019-02-16T19:17:16.365Z,100612.95
2019-02-16T19:22:39.682Z,100606.52
2019-02-16T19:28:11.772Z,100609.49
2019-02-16T19:33:32.027Z,100599.80
2019-02-16T19:39:01.313Z,100602.87
2019-02-16T19:44:21.541Z,100604.14
2019-02-16T19:49:41.654Z,100604.51
2019-02-16T19:55:01.976Z,100599.10
2019-02-16T20:00:22.980Z,100600.12
2019-02-16T20:05:43.209Z,100598.25
2019-02-16T20:11:19.943Z,100592.06
2019-02-16T20:16:56.310Z,100586.91
2019-02-16T20:22:25.252Z,100592.05
2019-02-16T20:28:01.599Z,100594.27
2019-02-16T20:33:33.431Z,100586.45
2019-02-16T20:39:08.637Z,100591.23
2019-02-16T20:44:28.839Z,100591.69
2019-02-16T20:49:54.825Z,100592.78
2019-02-16T20:55:26.946Z,100586.99
2019-02-16T21:00:51.988Z,100592.77
2019-02-16T21:06:17.744Z,100591.41
2019-02-16T21:11:44.057Z,100590.04
2019-02-16T21:17:22.259Z,100588.38
2019-02-16T21:22:58.590Z,100582.78
2019-02-16T21:28:18.960Z,100576.08
2019-02-16T21:33:48.100Z,100582.98
2019-02-16T21:39:14.371Z,100572.91
2019-02-16T21:44:51.325Z,100576.83
2019-02-16T21:50:11.799Z,100579.86
2019-02-16T21:55:41.020Z,100573.45
2019-02-16T22:01:09.960Z,100572.34
2019-02-16T22:06:46.014Z,100568.81
2019-02-16T22:12:06.212Z,100566.81
2019-02-16T22:17:24.799Z,100572.63
2019-02-16T22:22:43.374Z,100575.08
2019-02-16T22:28:01.952Z,100559.95
2019-02-16T22:33:22.060Z,100559.91
2019-02-16T22:38:40.744Z,100553.86
2019-02-16T22:43:59.455Z,100563.02
2019-02-16T22:49:19.085Z,100567.97
2019-02-16T22:54:37.631Z,100560.11
2019-02-16T22:59:56.256Z,100564.61
2019-02-16T23:05:15.480Z,100574.69
2019-02-16T23:10:34.107Z,100577.56
2019-02-16T23:15:53.019Z,100572.37
2019-02-16T23:21:11.650Z,100571.95
2019-02-16T23:26:30.395Z,100567.23
2019-02-16T23:31:49.017Z,100565.31
2019-02-16T23:37:07.648Z,100557.95
2019-02-16T23:42:26.214Z,100556.84
2019-02-16T23:47:44.773Z,100550.83
2019-02-16T23:53:04.603Z,100550.45
2019-02-16T23:58:25.020Z,100543.75
